sim
Sign-in with your pilot id or email,
or register
Callsign
Passwort

Schedule Details

Flight Number: DLH2701 (1)
Departure: Dusseldorf International Airport (EDDL) at 13:45
Arrival: Munich Airport (EDDM) at 14:55
Route: Lufthansa Passenger Schedule. Enter filed route here before submitting Pirep.

Weather Information
Getting current METAR information for EDDL 261750Z 34003KT 300V010 9999 -RA SCT037 12/09 Q1000 NOSIG
Getting current METAR information for EDDM 261750Z 25022G32KT 9999 -RA BKN023 OVC042 07/04 Q1001 NOSIG

Schedule Frequency

Route Map